Time;durP1;ratioP1;P1;durP2;ratioP2;P2;SDS_P1;SDS_P2;PMS_P1;PMS_P2;Temp;Humidity;BMP_temperature;BMP_pressure;BME280_temperature;BME280_humidity;BME280_pressure;Samples;Min_cycle;Max_cycle;Signal;HPM_P1;HPM_P2
2022/10/16 00:01:15;;;;;;;7.25;1.80;;;;;;;16.84;100.00;99724.94;5051207;28;20078;-86
2022/10/16 00:03:43;;;;;;;7.28;1.80;;;;;;;16.82;100.00;99720.75;5017929;28;20048;-86
2022/10/16 00:06:10;;;;;;;9.05;1.50;;;;;;;16.84;100.00;99718.72;5040118;28;20028;-86
2022/10/16 00:08:38;;;;;;;11.88;1.90;;;;;;;16.83;100.00;99717.06;5042262;28;20380;-86
2022/10/16 00:11:08;;;;;;;6.20;1.48;;;;;;;16.81;100.00;99716.38;5064889;28;20614;-85
2022/10/16 00:13:36;;;;;;;13.77;1.63;;;;;;;16.82;100.00;99716.22;5020899;28;20052;-85
2022/10/16 00:16:03;;;;;;;5.53;1.48;;;;;;;16.84;100.00;99716.88;5039709;28;20036;-85
2022/10/16 00:18:30;;;;;;;8.77;1.70;;;;;;;16.82;100.00;99724.28;5061823;28;20040;-85
2022/10/16 00:21:08;;;;;;;11.88;3.22;;;;;;;16.77;100.00;99723.94;5065045;28;20109;-85
2022/10/16 00:23:55;;;;;;;7.03;1.95;;;;;;;16.80;100.00;99728.97;5077706;28;20066;-86
2022/10/16 00:26:22;;;;;;;15.38;1.88;;;;;;;16.80;100.00;99738.88;5052338;28;20136;-85
2022/10/16 00:28:50;;;;;;;3.88;1.73;;;;;;;16.82;100.00;99734.16;5022565;28;20411;-86
2022/10/16 00:31:19;;;;;;;12.32;2.00;;;;;;;16.82;100.00;99747.56;5039572;28;20491;-86
2022/10/16 00:33:46;;;;;;;13.25;2.13;;;;;;;16.83;100.00;99733.97;5056563;28;20469;-85
2022/10/16 00:36:15;;;;;;;16.42;3.90;;;;;;;16.83;100.00;99735.81;5049230;28;20480;-85
2022/10/16 00:38:42;;;;;;;7.63;1.80;;;;;;;16.82;100.00;99734.16;5058412;28;20144;-85
2022/10/16 00:41:13;;;;;;;9.60;1.50;;;;;;;16.82;100.00;99742.22;5038696;28;20510;-85
2022/10/16 00:43:55;;;;;;;16.60;1.80;;;;;;;16.75;100.00;99751.94;5059292;28;20150;-85
2022/10/16 00:46:23;;;;;;;5.68;1.58;;;;;;;16.83;100.00;99744.69;5045525;28;20185;-86
2022/10/16 00:48:59;;;;;;;8.65;1.70;;;;;;;16.78;100.00;99736.34;5046987;28;20372;-85
2022/10/16 00:51:31;;;;;;;10.73;2.05;;;;;;;16.80;100.00;99742.38;5055219;28;20051;-85
2022/10/16 00:53:57;;;;;;;10.38;1.60;;;;;;;16.82;100.00;99726.94;5058664;28;20049;-86
2022/10/16 00:56:24;;;;;;;7.90;1.45;;;;;;;16.84;100.00;99730.28;5041754;28;20384;-85
2022/10/16 00:58:51;;;;;;;7.03;1.70;;;;;;;16.86;100.00;99727.41;5048379;28;20040;-85
2022/10/16 01:01:18;;;;;;;3.78;1.50;;;;;;;16.86;100.00;99727.41;5060050;28;20098;-85
2022/10/16 01:03:45;;;;;;;6.28;1.50;;;;;;;16.88;100.00;99734.25;5040309;28;20048;-85
2022/10/16 01:06:23;;;;;;;7.15;2.00;;;;;;;16.84;99.85;99738.34;5022056;28;20052;-85
2022/10/16 01:09:15;;;;;;;3.53;1.48;;;;;;;16.83;99.91;99749.22;5074155;28;20044;-85
2022/10/16 01:11:49;;;;;;;5.60;2.08;;;;;;;16.86;99.93;99754.22;5051239;28;20051;-85
2022/10/16 01:14:28;;;;;;;6.78;1.63;;;;;;;16.82;99.90;99756.44;5039373;28;20052;-86
2022/10/16 01:17:07;;;;;;;9.57;1.95;;;;;;;16.81;100.00;99757.44;5050415;28;20048;-85
2022/10/16 01:19:52;;;;;;;9.18;2.22;;;;;;;16.79;99.88;99746.09;5041722;28;20136;-86
2022/10/16 01:22:20;;;;;;;11.48;1.70;;;;;;;16.88;100.00;99736.13;5056804;28;20040;-86
2022/10/16 01:24:49;;;;;;;8.50;1.55;;;;;;;16.88;99.96;99731.59;5038883;28;20040;-86
2022/10/16 01:27:27;;;;;;;14.48;1.75;;;;;;;16.82;99.89;99731.47;5046511;28;20060;-86
2022/10/16 01:29:58;;;;;;;7.45;1.70;;;;;;;16.86;99.90;99735.47;5053400;28;20106;-86
2022/10/16 01:32:25;;;;;;;14.23;2.30;;;;;;;16.89;99.87;99741.31;5069423;28;20040;-86
2022/10/16 01:34:59;;;;;;;8.82;1.90;;;;;;;16.84;100.00;99748.22;5060508;28;20041;-85
2022/10/16 01:37:40;;;;;;;4.25;2.00;;;;;;;16.80;100.00;99750.41;5054451;28;20048;-85
2022/10/16 01:40:11;;;;;;;20.13;3.05;;;;;;;16.87;100.00;99754.06;5039492;28;20060;-85
2022/10/16 01:42:42;;;;;;;7.03;2.00;;;;;;;16.85;100.00;99763.31;5054320;28;20535;-85
2022/10/16 01:45:12;;;;;;;7.38;1.77;;;;;;;16.86;100.00;99767.63;5064373;28;20036;-86
2022/10/16 01:47:40;;;;;;;11.77;2.28;;;;;;;16.85;100.00;99772.19;5029538;28;20487;-86
2022/10/16 01:50:08;;;;;;;9.27;2.67;;;;;;;16.85;100.00;99771.34;5038353;28;20052;-86
2022/10/16 01:52:37;;;;;;;9.50;3.33;;;;;;;16.85;100.00;99771.34;5048298;28;20056;-86
2022/10/16 01:55:06;;;;;;;6.43;1.75;;;;;;;16.86;100.00;99765.78;5058603;28;20086;-86
2022/10/16 01:57:34;;;;;;;11.00;1.70;;;;;;;16.86;100.00;99763.09;5044846;28;20440;-86
2022/10/16 02:00:04;;;;;;;5.63;1.90;;;;;;;16.86;100.00;99762.28;5044419;28;20135;-85
2022/10/16 02:02:39;;;;;;;8.55;1.83;;;;;;;16.86;100.00;99770.31;5056896;28;20690;-86
2022/10/16 02:05:18;;;;;;;9.50;2.20;;;;;;;16.85;100.00;99757.94;5006340;28;20045;-86
2022/10/16 02:07:45;;;;;;;15.00;1.98;;;;;;;16.85;100.00;99755.25;5052199;28;20411;-86
2022/10/16 02:10:12;;;;;;;21.25;2.63;;;;;;;16.85;100.00;99760.63;5029970;28;20059;-86
2022/10/16 02:12:42;;;;;;;7.20;2.05;;;;;;;16.83;100.00;99749.22;5066599;28;20036;-86
2022/10/16 02:15:09;;;;;;;10.38;2.20;;;;;;;16.86;100.00;99759.59;5072687;28;20040;-86
2022/10/16 02:17:36;;;;;;;11.07;2.45;;;;;;;16.85;100.00;99760.63;5050564;28;20098;-85
2022/10/16 02:20:03;;;;;;;4.22;1.92;;;;;;;16.84;100.00;99756.25;5070722;28;20427;-85
2022/10/16 02:22:38;;;;;;;8.70;1.70;;;;;;;16.83;100.00;99760.78;5061787;28;20441;-85
2022/10/16 02:25:10;;;;;;;8.63;1.75;;;;;;;16.81;100.00;99773.53;5062869;28;20036;-85
2022/10/16 02:27:36;;;;;;;10.73;2.33;;;;;;;16.83;100.00;99762.63;5048438;28;20442;-85
2022/10/16 02:30:08;;;;;;;6.68;2.00;;;;;;;16.83;100.00;99766.16;5059732;28;20406;-85
2022/10/16 02:32:37;;;;;;;13.15;2.15;;;;;;;16.85;100.00;99764.13;5047693;28;20040;-85
2022/10/16 02:35:05;;;;;;;8.50;2.35;;;;;;;16.85;100.00;99769.50;5064845;28;20055;-85
2022/10/16 02:37:32;;;;;;;4.15;1.58;;;;;;;16.84;100.00;99766.97;5068237;28;20045;-85
2022/10/16 02:40:00;;;;;;;7.30;2.25;;;;;;;16.83;100.00;99760.78;5056912;28;20048;-85
2022/10/16 02:42:37;;;;;;;9.75;2.25;;;;;;;16.79;100.00;99762.19;5041208;28;20049;-85
2022/10/16 02:45:05;;;;;;;10.18;2.30;;;;;;;16.83;100.00;99762.63;5040834;28;20047;-85
2022/10/16 02:47:32;;;;;;;5.05;2.08;;;;;;;16.83;100.00;99768.00;5079713;28;20329;-85
2022/10/16 02:49:59;;;;;;;9.07;2.30;;;;;;;16.84;100.00;99769.66;5046319;28;20068;-85
2022/10/16 02:52:26;;;;;;;13.90;2.50;;;;;;;16.83;100.00;99781.41;5044370;28;20049;-85
2022/10/16 02:54:53;;;;;;;5.97;2.17;;;;;;;16.82;100.00;99766.34;5021786;28;20052;-85
2022/10/16 02:57:20;;;;;;;7.13;2.13;;;;;;;16.82;100.00;99777.06;5055713;28;20045;-86
2022/10/16 02:59:47;;;;;;;7.25;2.45;;;;;;;16.80;100.00;99774.56;5044848;28;20899;-86
2022/10/16 03:02:14;;;;;;;14.07;2.50;;;;;;;16.81;100.00;99762.81;5043435;28;20407;-85
2022/10/16 03:04:40;;;;;;;10.90;2.40;;;;;;;16.80;100.00;99771.88;5059056;28;20048;-86
2022/10/16 03:07:07;;;;;;;11.00;2.42;;;;;;;16.79;100.00;99772.03;5030977;28;20785;-85
2022/10/16 03:09:34;;;;;;;11.38;2.42;;;;;;;16.80;100.00;99776.41;5072912;28;20089;-85
2022/10/16 03:12:01;;;;;;;7.03;2.20;;;;;;;16.81;100.00;99764.66;5063904;28;20147;-85
2022/10/16 03:14:27;;;;;;;5.10;2.10;;;;;;;16.81;100.00;99768.16;5037993;28;20054;-85
2022/10/16 03:16:59;;;;;;;7.80;2.70;;;;;;;16.81;100.00;99775.38;5014052;28;20044;-85
2022/10/16 03:19:26;;;;;;;10.80;3.08;;;;;;;16.80;100.00;99782.59;5012898;28;20044;-86
2022/10/16 03:21:52;;;;;;;10.25;2.88;;;;;;;16.78;100.00;99779.25;5059923;28;20086;-85
2022/10/16 03:24:19;;;;;;;6.13;2.47;;;;;;;16.80;100.00;99782.59;5047298;28;20052;-85
2022/10/16 03:26:46;;;;;;;13.70;2.67;;;;;;;16.80;100.00;99793.31;5031995;28;20097;-85
2022/10/16 03:29:12;;;;;;;11.15;2.42;;;;;;;16.79;100.00;99807.75;5029137;28;20724;-85
2022/10/16 03:31:40;;;;;;;7.13;2.40;;;;;;;16.81;100.00;99795.00;5028066;28;20087;-85
2022/10/16 03:34:07;;;;;;;17.33;2.72;;;;;;;16.80;100.00;99792.50;5074328;28;20057;-86
2022/10/16 03:36:33;;;;;;;8.57;2.28;;;;;;;16.80;100.00;99800.53;5045626;28;20135;-85
2022/10/16 03:39:00;;;;;;;11.68;2.78;;;;;;;16.79;100.00;99798.84;5014794;28;20048;-86
2022/10/16 03:41:27;;;;;;;13.38;2.95;;;;;;;16.76;100.00;99797.34;5051927;28;20766;-85
2022/10/16 03:43:54;;;;;;;10.63;2.80;;;;;;;16.75;100.00;99797.53;5060752;28;20072;-85
2022/10/16 03:46:20;;;;;;;12.10;2.33;;;;;;;16.76;100.00;99807.22;5058092;28;20040;-85
2022/10/16 03:48:47;;;;;;;15.73;2.85;;;;;;;16.75;100.00;99798.34;5045614;28;20083;-85
2022/10/16 03:51:14;;;;;;;9.73;2.45;;;;;;;16.77;100.00;99800.88;5059210;28;20384;-85
2022/10/16 03:53:40;;;;;;;7.13;2.13;;;;;;;16.78;100.00;99799.88;5049394;28;20058;-85
2022/10/16 03:56:07;;;;;;;12.48;2.63;;;;;;;16.77;100.00;99804.38;5024071;28;20095;-85
2022/10/16 03:58:34;;;;;;;12.70;2.33;;;;;;;16.77;100.00;99803.56;5041941;28;20048;-85
2022/10/16 04:01:00;;;;;;;8.23;2.10;;;;;;;16.75;100.00;99798.34;5047644;28;20491;-84
2022/10/16 04:03:27;;;;;;;10.43;2.38;;;;;;;16.76;100.00;99799.19;5046539;28;20458;-84
2022/10/16 04:05:54;;;;;;;8.90;2.33;;;;;;;16.77;100.00;99800.88;5045409;28;20452;-86
2022/10/16 04:08:21;;;;;;;13.68;2.58;;;;;;;16.76;100.00;99799.19;5041204;28;20044;-85
2022/10/16 04:10:47;;;;;;;17.08;3.17;;;;;;;16.76;100.00;99791.13;5026934;28;20044;-85
2022/10/16 04:13:15;;;;;;;11.02;2.85;;;;;;;16.74;100.00;99785.13;5047497;28;20048;-85
2022/10/16 04:15:41;;;;;;;8.93;2.58;;;;;;;16.74;100.00;99796.69;5055139;28;20056;-85
2022/10/16 04:18:08;;;;;;;10.38;2.33;;;;;;;16.74;100.00;99804.75;5058959;28;20123;-85
2022/10/16 04:20:35;;;;;;;7.55;2.53;;;;;;;16.72;100.00;99812.13;5039498;28;20048;-85
2022/10/16 04:23:02;;;;;;;14.95;2.50;;;;;;;16.73;100.00;99805.72;5036844;28;20380;-85
2022/10/16 04:25:29;;;;;;;6.78;2.80;;;;;;;16.70;100.00;99812.28;5029874;28;20048;-85
2022/10/16 04:27:55;;;;;;;10.48;2.08;;;;;;;16.72;100.00;99820.16;5051255;28;20413;-86
2022/10/16 04:30:23;;;;;;;6.80;2.83;;;;;;;16.71;100.00;99822.03;5031018;28;20047;-85
2022/10/16 04:32:53;;;;;;;15.35;2.83;;;;;;;16.68;100.00;99826.88;5002261;28;20465;-85
2022/10/16 04:35:21;;;;;;;9.23;2.83;;;;;;;16.70;100.00;99825.69;5047291;28;20053;-85
2022/10/16 04:37:47;;;;;;;13.75;4.38;;;;;;;16.71;100.00;99831.88;5056739;28;20055;-85
2022/10/16 04:40:14;;;;;;;8.80;2.40;;;;;;;16.70;100.00;99832.91;5059531;28;20114;-85
2022/10/16 04:42:41;;;;;;;13.85;2.60;;;;;;;16.68;100.00;99824.19;5058535;28;20068;-85
2022/10/16 04:45:08;;;;;;;14.25;3.45;;;;;;;16.68;100.00;99821.50;5055087;28;20041;-85
2022/10/16 04:47:40;;;;;;;5.85;2.55;;;;;;;16.67;100.00;99826.06;5070571;28;20040;-85
2022/10/16 04:50:07;;;;;;;6.70;2.45;;;;;;;16.68;100.00;99832.25;5046295;28;20052;-85
2022/10/16 04:52:34;;;;;;;7.43;2.40;;;;;;;16.68;100.00;99830.38;5041752;28;20075;-85
2022/10/16 04:55:06;;;;;;;7.03;2.63;;;;;;;16.67;100.00;99828.72;5040585;28;20177;-85
2022/10/16 04:57:33;;;;;;;7.00;2.13;;;;;;;16.68;100.00;99838.44;5018685;28;20040;-85
2022/10/16 05:00:00;;;;;;;7.50;2.50;;;;;;;16.67;100.00;99839.44;5039672;28;20079;-85
2022/10/16 05:02:26;;;;;;;14.20;3.55;;;;;;;16.69;100.00;99831.25;5057270;28;20040;-85
2022/10/16 05:04:53;;;;;;;7.57;3.20;;;;;;;16.69;100.00;99833.94;5043790;28;20123;-84
2022/10/16 05:07:20;;;;;;;6.47;2.92;;;;;;;16.69;100.00;99828.56;5065553;28;20037;-85
2022/10/16 05:09:47;;;;;;;13.48;3.15;;;;;;;16.67;100.00;99831.41;5018313;28;20055;-85
2022/10/16 05:12:14;;;;;;;15.60;3.15;;;;;;;16.67;100.00;99831.41;5057508;28;20082;-85
2022/10/16 05:14:40;;;;;;;10.02;2.92;;;;;;;16.65;100.00;99844.16;5051900;28;20492;-85
2022/10/16 05:17:07;;;;;;;11.27;3.08;;;;;;;16.67;100.00;99838.63;5060648;28;20098;-85
2022/10/16 05:19:34;;;;;;;9.35;2.38;;;;;;;16.65;100.00;99841.47;5060932;28;20040;-85
2022/10/16 05:22:01;;;;;;;6.60;2.70;;;;;;;16.65;100.00;99840.63;5039772;28;20048;-85
2022/10/16 05:24:28;;;;;;;5.90;2.17;;;;;;;16.67;100.00;99836.78;5054761;28;20443;-85
2022/10/16 05:26:54;;;;;;;9.82;2.67;;;;;;;16.64;100.00;99837.13;5047642;28;20055;-85
2022/10/16 05:29:21;;;;;;;10.50;2.40;;;;;;;16.65;100.00;99830.75;5025368;28;20070;-85
2022/10/16 05:31:52;;;;;;;12.55;2.63;;;;;;;16.61;100.00;99812.50;5036679;28;20056;-85
2022/10/16 05:34:20;;;;;;;5.07;2.40;;;;;;;16.63;100.00;99829.25;5053611;28;20055;-85
2022/10/16 05:36:47;;;;;;;14.25;2.65;;;;;;;16.60;100.00;99830.44;5055099;28;20514;-85
2022/10/16 05:39:15;;;;;;;9.40;2.65;;;;;;;16.64;100.00;99838.97;5019505;28;20056;-85
2022/10/16 05:41:42;;;;;;;5.43;2.28;;;;;;;16.61;100.00;99848.22;5043802;28;20056;-85
2022/10/16 05:44:09;;;;;;;12.85;2.70;;;;;;;16.63;100.00;99853.38;5068901;28;20396;-86
2022/10/16 05:46:36;;;;;;;13.57;2.70;;;;;;;16.63;100.00;99856.06;5043464;28;20441;-85
2022/10/16 05:49:03;;;;;;;9.32;3.00;;;;;;;16.62;100.00;99846.34;5046827;28;20067;-85
2022/10/16 05:51:30;;;;;;;10.70;2.58;;;;;;;16.63;100.00;99850.69;5051368;28;20056;-85
2022/10/16 05:53:57;;;;;;;10.77;4.18;;;;;;;16.63;100.00;99856.06;5047566;28;20878;-85
2022/10/16 05:56:24;;;;;;;11.95;2.72;;;;;;;16.62;100.00;99862.44;5044460;28;20427;-85
2022/10/16 05:58:50;;;;;;;13.88;2.70;;;;;;;16.62;100.00;99867.81;5056762;28;20047;-85
2022/10/16 06:01:18;;;;;;;10.82;2.45;;;;;;;16.62;100.00;99868.63;5045909;28;20533;-86
2022/10/16 06:03:45;;;;;;;9.05;3.30;;;;;;;16.62;100.00;99865.94;5052396;28;20425;-86
2022/10/16 06:06:17;;;;;;;9.40;2.65;;;;;;;16.58;100.00;99875.34;5046774;28;20807;-85
2022/10/16 06:08:47;;;;;;;13.18;2.65;;;;;;;16.62;100.00;99874.00;5059807;28;20047;-86
2022/10/16 06:11:18;;;;;;;5.55;2.40;;;;;;;16.61;100.00;99869.66;5057557;28;20052;-85
2022/10/16 06:13:46;;;;;;;7.32;2.60;;;;;;;16.59;100.00;99865.44;5049761;28;20064;-85
2022/10/16 06:16:13;;;;;;;13.40;3.00;;;;;;;16.62;100.00;99868.63;5052506;28;20105;-85
2022/10/16 06:18:39;;;;;;;8.05;2.70;;;;;;;16.61;100.00;99869.66;5065073;28;20042;-85
2022/10/16 06:21:12;;;;;;;8.30;3.05;;;;;;;16.60;100.00;99867.13;5044170;28;20041;-85
2022/10/16 06:23:39;;;;;;;7.40;2.63;;;;;;;16.60;100.00;99884.06;5060250;28;20044;-85
2022/10/16 06:26:11;;;;;;;10.32;4.72;;;;;;;16.62;100.00;99873.16;5065935;28;20040;-85
2022/10/16 06:28:38;;;;;;;8.85;2.72;;;;;;;16.61;100.00;99864.28;5048331;28;20063;-85
2022/10/16 06:31:07;;;;;;;11.13;2.72;;;;;;;16.63;100.00;99862.25;5049577;28;20051;-85
2022/10/16 06:33:35;;;;;;;16.02;3.65;;;;;;;16.66;100.00;99871.78;5063447;28;20419;-85
2022/10/16 06:36:10;;;;;;;5.82;2.35;;;;;;;16.61;100.00;99888.44;5074367;28;20052;-85
2022/10/16 06:38:37;;;;;;;14.50;3.20;;;;;;;16.65;100.00;99875.50;5056906;28;20497;-84
2022/10/16 06:41:05;;;;;;;10.35;2.92;;;;;;;16.66;100.00;99886.06;5082201;28;20105;-85
2022/10/16 06:43:32;;;;;;;7.53;2.42;;;;;;;16.66;100.00;99903.97;5040347;28;20048;-84
2022/10/16 06:46:00;;;;;;;8.55;3.00;;;;;;;16.66;100.00;99906.66;5074511;28;20046;-84
2022/10/16 06:48:27;;;;;;;7.15;2.78;;;;;;;16.66;100.00;99904.81;5053074;28;20097;-83
2022/10/16 06:51:02;;;;;;;12.10;3.00;;;;;;;16.65;100.00;99902.31;5050656;28;20506;-82
2022/10/16 06:53:36;;;;;;;8.20;2.83;;;;;;;16.66;100.00;99906.66;5046465;28;20051;-82
2022/10/16 06:56:25;;;;;;;9.38;2.70;;;;;;;16.63;100.00;99901.63;5065855;28;20080;-82
2022/10/16 06:58:52;;;;;;;10.75;3.03;;;;;;;16.66;100.00;99906.66;5069018;28;20075;-82
2022/10/16 07:01:21;;;;;;;7.82;2.88;;;;;;;16.66;100.00;99910.19;5068779;28;20044;-82
2022/10/16 07:03:48;;;;;;;8.73;2.75;;;;;;;16.67;100.00;99921.75;5048847;28;20047;-82
2022/10/16 07:06:17;;;;;;;4.82;3.20;;;;;;;16.68;100.00;99926.09;5066429;28;20055;-82
2022/10/16 07:08:45;;;;;;;10.70;3.13;;;;;;;16.68;100.00;99923.41;5063099;28;20388;-82
2022/10/16 07:11:14;;;;;;;6.50;3.33;;;;;;;16.68;100.00;99926.09;5065175;28;20144;-82
2022/10/16 07:13:43;;;;;;;10.75;4.07;;;;;;;16.68;100.00;99926.91;5055087;28;20132;-82
2022/10/16 07:16:20;;;;;;;8.25;3.40;;;;;;;16.63;100.00;99926.59;5045845;28;20040;-82
2022/10/16 07:18:48;;;;;;;23.98;3.80;;;;;;;16.69;100.00;99925.91;5058179;28;20091;-82
2022/10/16 07:21:17;;;;;;;9.05;2.70;;;;;;;16.71;100.00;99931.09;5094316;28;20040;-82
2022/10/16 07:23:44;;;;;;;8.48;2.95;;;;;;;16.75;100.00;99942.31;5041193;28;20104;-81
2022/10/16 07:26:11;;;;;;;4.10;2.30;;;;;;;16.77;100.00;99938.47;5058783;28;20064;-82
2022/10/16 07:28:39;;;;;;;12.27;3.47;;;;;;;16.79;100.00;99933.81;5044979;28;20051;-82
2022/10/16 07:31:10;;;;;;;12.77;3.40;;;;;;;16.83;100.00;99940.47;5060568;28;20124;-81
2022/10/16 07:33:38;;;;;;;5.22;2.92;;;;;;;16.84;100.00;99944.84;5063264;28;20067;-82
2022/10/16 07:36:05;;;;;;;9.45;3.85;;;;;;;16.86;100.00;99947.34;5081882;28;20094;-82
2022/10/16 07:38:32;;;;;;;12.50;4.63;;;;;;;16.89;100.00;99949.66;5057768;28;20064;-81
2022/10/16 07:41:01;;;;;;;9.30;4.43;;;;;;;16.91;100.00;99955.69;5077947;28;20040;-81
2022/10/16 07:43:28;;;;;;;11.88;4.97;;;;;;;16.91;100.00;99950.34;5056168;28;20051;-82
2022/10/16 07:45:55;;;;;;;15.32;4.32;;;;;;;16.94;100.00;99949.97;5066343;28;20504;-83
2022/10/16 07:48:27;;;;;;;9.70;4.32;;;;;;;16.96;100.00;99956.00;5060680;28;20491;-83
2022/10/16 07:51:02;;;;;;;8.10;3.95;;;;;;;16.96;100.00;99961.38;5044075;28;20055;-83
2022/10/16 07:53:29;;;;;;;10.65;3.97;;;;;;;17.04;100.00;99964.00;5054586;28;20495;-83
2022/10/16 07:56:00;;;;;;;15.50;3.75;;;;;;;17.06;99.78;99966.53;5065629;28;20045;-83
2022/10/16 07:58:28;;;;;;;7.07;3.80;;;;;;;17.11;100.00;99974.91;5077803;28;20708;-83
2022/10/16 08:00:55;;;;;;;9.15;3.47;;;;;;;17.13;99.86;99973.72;5068303;28;20097;-83
2022/10/16 08:03:23;;;;;;;8.95;4.22;;;;;;;17.15;100.00;99986.97;5057019;28;20139;-83
2022/10/16 08:05:50;;;;;;;10.40;4.57;;;;;;;17.17;100.00;99982.22;5077909;28;20392;-83
2022/10/16 08:08:17;;;;;;;7.30;3.58;;;;;;;17.20;99.99;99981.03;5061774;28;20037;-83
2022/10/16 08:10:44;;;;;;;8.52;3.53;;;;;;;17.20;99.77;99983.72;5049388;28;20048;-83
2022/10/16 08:13:12;;;;;;;11.45;3.78;;;;;;;17.23;99.83;99994.97;5072936;28;20045;-83
2022/10/16 08:15:39;;;;;;;6.85;3.72;;;;;;;17.26;99.53;99988.41;5048750;28;20514;-83
2022/10/16 08:18:05;;;;;;;6.88;4.10;;;;;;;17.26;99.89;99994.63;5057646;28;20487;-83
2022/10/16 08:20:33;;;;;;;8.77;3.55;;;;;;;17.27;99.91;99998.97;5064948;28;20089;-83
2022/10/16 08:23:00;;;;;;;7.38;4.28;;;;;;;17.27;99.83;100003.50;5049638;28;20418;-83
2022/10/16 08:25:27;;;;;;;6.47;3.55;;;;;;;17.28;99.81;100005.19;5053432;28;20041;-83
2022/10/16 08:27:54;;;;;;;11.45;4.43;;;;;;;17.27;99.94;99998.97;5057247;28;20040;-83
2022/10/16 08:30:22;;;;;;;6.13;3.97;;;;;;;17.29;100.00;100004.16;5042579;28;20507;-83
2022/10/16 08:32:49;;;;;;;8.57;4.03;;;;;;;17.30;99.96;100009.38;5064354;28;20101;-83
2022/10/16 08:35:16;;;;;;;8.00;3.80;;;;;;;17.32;99.61;100012.69;5073908;28;20040;-83
2022/10/16 08:37:43;;;;;;;7.45;4.00;;;;;;;17.34;99.48;100009.84;5062741;28;20040;-83
2022/10/16 08:40:24;;;;;;;4.95;3.25;;;;;;;17.32;99.02;100006.50;5058538;28;20044;-83
2022/10/16 08:43:10;;;;;;;9.57;4.20;;;;;;;17.33;99.09;100017.06;5075971;28;20106;-83
2022/10/16 08:45:43;;;;;;;8.93;4.25;;;;;;;17.41;98.88;100016.19;5080238;28;20093;-83
2022/10/16 08:48:29;;;;;;;7.78;3.95;;;;;;;17.43;98.94;100018.69;5057806;28;20044;-83
2022/10/16 08:50:56;;;;;;;8.73;4.03;;;;;;;17.52;99.22;100017.63;5069573;28;20540;-83
2022/10/16 08:53:28;;;;;;;12.43;4.43;;;;;;;17.52;98.97;100007.72;5040014;28;20056;-82
2022/10/16 08:55:55;;;;;;;6.63;3.53;;;;;;;17.56;99.00;100006.38;5041305;28;20044;-83
2022/10/16 08:58:26;;;;;;;6.57;3.22;;;;;;;17.57;99.19;100013.41;5063995;28;20086;-82
2022/10/16 09:00:58;;;;;;;5.25;3.33;;;;;;;17.57;98.73;100015.25;5055827;28;20456;-83
2022/10/16 09:03:28;;;;;;;9.02;4.03;;;;;;;17.58;98.36;100016.94;5041487;28;20051;-83
2022/10/16 09:06:36;;;;;;;4.75;2.88;;;;;;;17.50;97.99;100020.50;5051130;28;20052;-83
2022/10/16 09:09:31;;;;;;;7.22;3.95;;;;;;;17.55;98.23;100020.81;5062741;28;20040;-84
2022/10/16 09:12:10;;;;;;;7.00;3.45;;;;;;;17.58;98.04;100025.00;5059806;28;20140;-84
2022/10/16 09:14:53;;;;;;;5.70;3.10;;;;;;;17.57;97.95;100029.50;5054193;28;20072;-83
2022/10/16 09:17:34;;;;;;;6.80;3.25;;;;;;;17.60;98.08;100038.22;5057215;28;20075;-83
2022/10/16 09:20:18;;;;;;;6.57;3.72;;;;;;;17.60;98.17;100035.53;5075328;28;20045;-84
2022/10/16 09:22:45;;;;;;;7.45;3.33;;;;;;;17.68;98.46;100033.66;5036868;28;20064;-82
2022/10/16 09:25:20;;;;;;;9.13;4.00;;;;;;;17.64;98.27;100044.94;5040388;28;20140;-82
2022/10/16 09:27:48;;;;;;;8.45;3.50;;;;;;;17.68;97.83;100055.16;5037483;28;20139;-82
2022/10/16 09:30:17;;;;;;;10.73;3.17;;;;;;;17.70;97.71;100063.84;5056727;28;20564;-82
2022/10/16 09:32:46;;;;;;;5.78;3.00;;;;;;;17.71;97.90;100072.75;5065985;28;20047;-82
2022/10/16 09:35:37;;;;;;;7.88;3.33;;;;;;;17.64;97.42;100079.84;5060964;28;20101;-82
2022/10/16 09:38:04;;;;;;;7.55;3.53;;;;;;;17.72;98.07;100077.09;5051336;28;20040;-82
2022/10/16 09:40:31;;;;;;;7.68;3.20;;;;;;;17.72;98.23;100080.63;5070893;28;20079;-82
2022/10/16 09:43:29;;;;;;;5.70;3.38;;;;;;;17.69;97.87;100077.47;5059547;28;20059;-82
2022/10/16 09:46:07;;;;;;;6.07;2.78;;;;;;;17.68;97.77;100086.50;5078264;28;20511;-82
2022/10/16 09:48:42;;;;;;;7.10;3.50;;;;;;;17.70;97.40;100079.97;5057751;28;20040;-82
2022/10/16 09:51:22;;;;;;;6.75;3.33;;;;;;;17.66;96.75;100086.72;5068919;28;20110;-82
2022/10/16 09:53:49;;;;;;;10.68;3.40;;;;;;;17.74;96.99;100092.03;5075139;28;20174;-82
2022/10/16 09:56:35;;;;;;;8.82;3.10;;;;;;;17.69;96.99;100094.41;5060389;28;20084;-82
2022/10/16 09:59:12;;;;;;;8.85;3.17;;;;;;;17.71;97.27;100100.44;5066820;28;20036;-81
2022/10/16 10:01:41;;;;;;;8.38;3.00;;;;;;;17.81;97.85;100110.16;5058511;28;20047;-82
2022/10/16 10:04:08;;;;;;;9.45;3.92;;;;;;;17.84;97.45;100105.28;5054233;28;20110;-82
2022/10/16 10:06:40;;;;;;;8.90;3.80;;;;;;;17.87;96.47;100109.47;5041342;28;20048;-82
2022/10/16 10:09:18;;;;;;;9.63;3.90;;;;;;;17.85;96.17;100112.31;5055479;28;20039;-81
2022/10/16 10:11:49;;;;;;;6.85;3.10;;;;;;;17.94;96.37;100113.13;5056846;28;20037;-81
2022/10/16 10:14:36;;;;;;;6.82;2.75;;;;;;;17.92;96.17;100107.09;5070749;28;20075;-81
2022/10/16 10:20:15;;;;;;;9.07;3.35;;;;;;;18.03;95.14;100103.16;5106411;27;20571;-81
2022/10/16 10:22:45;;;;;;;7.70;3.67;;;;;;;18.16;95.80;100111.47;4980214;28;60191;-80
2022/10/16 10:25:12;;;;;;;6.65;3.00;;;;;;;18.17;95.73;100108.59;4968096;28;20129;-80
2022/10/16 10:27:51;;;;;;;6.63;3.00;;;;;;;18.12;94.79;100099.41;4989281;28;20054;-81
2022/10/16 10:30:25;;;;;;;8.68;2.83;;;;;;;18.21;95.35;100109.91;5012579;28;20462;-81
2022/10/16 10:33:10;;;;;;;3.70;2.25;;;;;;;18.22;96.15;100102.69;5007050;28;20058;-81
2022/10/16 10:35:48;;;;;;;5.65;2.65;;;;;;;18.22;95.98;100103.53;5012820;28;20049;-81
2022/10/16 10:38:15;;;;;;;6.93;2.15;;;;;;;18.27;95.96;100105.69;4992936;28;20061;-81
2022/10/16 10:40:56;;;;;;;6.05;2.53;;;;;;;18.26;95.27;100106.69;5001740;28;21398;-81
2022/10/16 10:43:44;;;;;;;4.45;2.60;;;;;;;18.29;95.69;100103.63;4972723;28;20046;-82
2022/10/16 10:46:19;;;;;;;5.38;2.60;;;;;;;18.28;95.64;100098.44;5011587;28;20099;-81
2022/10/16 10:49:10;;;;;;;6.50;2.70;;;;;;;18.27;95.72;100091.38;4989659;28;20061;-81
2022/10/16 10:51:59;;;;;;;7.03;2.38;;;;;;;18.29;94.92;100083.97;4990649;28;20054;-81
2022/10/16 10:54:39;;;;;;;4.95;2.40;;;;;;;18.35;95.30;100088.66;5015328;28;20038;-81
2022/10/16 10:57:25;;;;;;;5.10;2.58;;;;;;;18.36;94.89;100085.78;5024044;28;20043;-81
2022/10/16 10:59:54;;;;;;;3.88;2.40;;;;;;;18.46;95.22;100084.69;5007545;28;20497;-80
2022/10/16 11:02:53;;;;;;;12.32;2.92;;;;;;;18.39;93.98;100085.44;4980991;28;20046;-88
2022/10/16 11:05:28;;;;;;;9.32;2.88;;;;;;;18.46;94.10;100084.69;4960165;28;20043;-88
2022/10/16 11:07:58;;;;;;;6.78;2.60;;;;;;;18.54;94.64;100090.00;4985599;28;20138;-86
2022/10/16 11:10:50;;;;;;;6.40;2.85;;;;;;;18.49;94.10;100085.16;4983956;28;20128;-85
2022/10/16 11:13:26;;;;;;;3.95;2.33;;;;;;;18.59;93.79;100071.47;4994409;28;20105;-87
2022/10/16 11:15:57;;;;;;;6.28;2.20;;;;;;;18.64;93.49;100063.69;5002441;28;20038;-86
2022/10/16 11:18:29;;;;;;;4.60;2.63;;;;;;;18.69;93.40;100066.66;4967981;28;20052;-86
2022/10/16 11:21:02;;;;;;;4.43;2.42;;;;;;;18.69;94.26;100071.22;4984807;28;20085;-85
2022/10/16 11:23:35;;;;;;;6.07;2.70;;;;;;;18.72;93.49;100076.22;4965394;28;20137;-85
2022/10/16 11:26:06;;;;;;;8.13;3.22;;;;;;;18.77;93.44;100082.75;4997918;28;20052;-86
2022/10/16 11:28:37;;;;;;;3.25;2.38;;;;;;;18.78;92.94;100076.38;4979768;28;20046;-86
2022/10/16 11:31:27;;;;;;;11.90;2.67;;;;;;;18.75;93.13;100076.75;4985881;28;20065;-88
2022/10/16 11:34:17;;;;;;;7.97;2.60;;;;;;;18.78;92.66;100075.53;4980384;28;20050;-86
2022/10/16 11:36:48;;;;;;;5.38;2.90;;;;;;;18.89;93.17;100076.94;4990092;28;20070;-87
2022/10/16 11:39:22;;;;;;;8.57;2.78;;;;;;;18.92;92.93;100079.25;4973805;28;20485;-87
2022/10/16 11:41:53;;;;;;;4.55;2.55;;;;;;;18.97;93.21;100077.69;4974500;28;20073;-86